Cut, Texas
Current Conditions -  °F | °C
As of 11:35 PM on Sunday 19 Oct 2014 (Local Time) from KDKR Reporting Station
Clear Clear  
Wind Chill: 64°   Ceiling: Unl
Heat Index: 64°   Visibility: 10mi
Dew Point: 59°   Wind: 3mph
Humidity: 83%   Direction: 70°ENE
Pressure: 30.1"   Gusts: NA
Location:  31.2828°N, 95.4821°W
Report Text: KDKR 200435Z AUTO 07003KT 10SM CLR 18/15 A3010 RMK AO2
Loading
Personal Weather Stations






























Interactive Weather Map
Tropical Storm Tracking
New forecast layout! Learn more

10-Day Weather Forecast

Advertisements
Track Severe Weather on mobile